»·PEaware :: N16RD KSNA-KVCV

N16RD :: KSNA-KVCV

FLIGHT INFORMATION

Flight Status: Arrived
Operator: Privately registered:
United States
More flights under this callsign
Pilot: Brett B. (12105)
Aircraft: CESSNA 172 SKYHAWK
(C172)
More flights by this aircraft type
Origin: KSNA John Wayne-Orange Co
United States
Destination: KVCV Socal Logistics
United States
More flights between these airports :: More routes between these airports
Route: +
File this flight plan on PilotEdge
Remarks:
Altitude:
(Current/Filed)
5,500ft
Speed:
(Current/Filed)
100kts
Departed: 07-Oct-17 03:26 PM
Arrived: 07-Oct-17 04:10 PM
Distance/Time
Traveled:
60nm/0:44
Distance/Time
To Go:
Arrived

Flight Plot

Page will automatically refresh every two minutes.


Map Options




Map Legend


Flown Route
Filed Route
Departure Airport
Arrival Airport
Navaid (VOR, NDB)
Fix

Horizontal Profiles

Position Reports

Time Latitude Longitude Heading Altitude Ground
Speed
07-Oct-17 15:20 33.680614 -117.861588 116 59ft 0kts
07-Oct-17 15:21 33.680613 -117.861587 116 59ft 0kts
07-Oct-17 15:22 33.680613 -117.861587 116 59ft 0kts
07-Oct-17 15:23 33.680613 -117.861586 116 59ft 0kts
07-Oct-17 15:24 33.680613 -117.861586 116 59ft 0kts
07-Oct-17 15:25 33.680908 -117.861465 322 59ft 3kts
07-Oct-17 15:26 33.679519 -117.863154 265 59ft 3kts
07-Oct-17 15:27 33.679648 -117.863697 294 59ft 0kts
07-Oct-17 15:28 33.679652 -117.863706 294 59ft 0kts
07-Oct-17 15:29 33.679076 -117.864887 209 59ft 34kts
07-Oct-17 15:30 33.665114 -117.875922 232 534ft 62kts
07-Oct-17 15:31 33.676881 -117.888448 359 995ft 82kts
07-Oct-17 15:32 33.697690 -117.888071 78 1438ft 81kts
07-Oct-17 15:33 33.700079 -117.862090 84 1996ft 79kts
07-Oct-17 15:34 33.702549 -117.834982 80 2501ft 86kts
07-Oct-17 15:35 33.719631 -117.809782 49 2774ft 94kts
07-Oct-17 15:36 33.733235 -117.780559 56 3006ft 127kts
07-Oct-17 15:37 33.755619 -117.750024 47 3187ft 113kts
07-Oct-17 15:38 33.778278 -117.726217 21 3581ft 107kts
07-Oct-17 15:39 33.805568 -117.711827 22 3960ft 105kts
07-Oct-17 15:40 33.830303 -117.698906 22 4327ft 97kts
07-Oct-17 15:41 33.856594 -117.685037 22 4426ft 101kts
07-Oct-17 15:42 33.872573 -117.655314 62 4518ft 115kts
07-Oct-17 15:43 33.886971 -117.620347 62 4507ft 117kts
07-Oct-17 15:44 33.901454 -117.584882 62 4519ft 120kts
07-Oct-17 15:45 33.916811 -117.547344 62 4480ft 122kts
07-Oct-17 15:46 33.930730 -117.513388 62 4519ft 110kts
07-Oct-17 15:47 33.944494 -117.479418 62 4536ft 116kts
07-Oct-17 15:48 33.965901 -117.450255 18 4501ft 121kts
07-Oct-17 15:49 33.996569 -117.443327 347 4532ft 112kts
07-Oct-17 15:50 34.029317 -117.443039 1 4498ft 117kts
07-Oct-17 15:51 34.059705 -117.441987 1 4530ft 106kts
07-Oct-17 15:52 34.089905 -117.440985 1 4641ft 105kts
07-Oct-17 15:53 34.119728 -117.440008 1 5014ft 105kts
07-Oct-17 15:54 34.146044 -117.439165 1 5364ft 90kts
07-Oct-17 15:55 34.172384 -117.438337 1 5810ft 98kts
07-Oct-17 15:56 34.200788 -117.437466 1 6209ft 102kts
07-Oct-17 15:57 34.227806 -117.432889 18 6427ft 100kts
07-Oct-17 15:58 34.254348 -117.423644 13 6511ft 101kts
07-Oct-17 15:59 34.282092 -117.419280 5 6765ft 105kts
07-Oct-17 16:00 34.311773 -117.418554 359 6178ft 105kts
07-Oct-17 16:01 34.341048 -117.419241 359 5631ft 105kts
07-Oct-17 16:02 34.370154 -117.419806 358 5026ft 103kts
07-Oct-17 16:03 34.399094 -117.420390 359 4511ft 99kts
07-Oct-17 16:04 34.426381 -117.418248 2 4362ft 97kts
07-Oct-17 16:05 34.453707 -117.418447 351 4272ft 97kts
07-Oct-17 16:06 34.479746 -117.424204 350 4320ft 92kts
07-Oct-17 16:07 34.506360 -117.426260 3 4373ft 102kts
07-Oct-17 16:08 34.533587 -117.415398 24 4382ft 103kts
07-Oct-17 16:09 34.559476 -117.398359 33 4189ft 106kts
07-Oct-17 16:10 34.579159 -117.376267 47 3923ft 87kts
07-Oct-17 16:11 34.594690 -117.355074 48 3736ft 82kts
07-Oct-17 16:12 34.610847 -117.350407 270 3524ft 84kts
07-Oct-17 16:13 34.598623 -117.368826 224 2854ft 42kts
07-Oct-17 16:14 34.594018 -117.372753 180 2854ft 16kts
07-Oct-17 16:15 34.591766 -117.370760 90 2854ft 19kts
07-Oct-17 16:16 34.591608 -117.369579 177 2854ft 0kts
07-Oct-17 16:17 34.591608 -117.369579 177 2854ft 0kts
07-Oct-17 16:18 34.591608 -117.369579 177 2854ft 0kts

Navigation Log

Ident Type
Flight plan parsing failed, navigation log unavailable